sensor_id;sensor_type;location;lat;lon;timestamp;P1;durP1;ratioP1;P2;durP2;ratioP2
42964;SDS011;28604;51.204;22.552;2023-02-08T00:01:40;33.92;;;14.35;;
42964;SDS011;28604;51.204;22.552;2023-02-08T00:04:07;33.03;;;14.50;;
42964;SDS011;28604;51.204;22.552;2023-02-08T00:06:33;29.80;;;13.38;;
42964;SDS011;28604;51.204;22.552;2023-02-08T00:08:59;27.25;;;12.45;;
42964;SDS011;28604;51.204;22.552;2023-02-08T00:11:26;32.95;;;12.40;;
42964;SDS011;28604;51.204;22.552;2023-02-08T00:13:51;35.13;;;14.00;;
42964;SDS011;28604;51.204;22.552;2023-02-08T00:16:17;30.70;;;12.40;;
42964;SDS011;28604;51.204;22.552;2023-02-08T00:18:43;31.50;;;13.02;;
42964;SDS011;28604;51.204;22.552;2023-02-08T00:21:10;26.02;;;11.35;;
42964;SDS011;28604;51.204;22.552;2023-02-08T00:23:38;25.95;;;12.88;;
42964;SDS011;28604;51.204;22.552;2023-02-08T00:26:04;24.92;;;12.50;;
42964;SDS011;28604;51.204;22.552;2023-02-08T00:28:30;28.30;;;12.48;;
42964;SDS011;28604;51.204;22.552;2023-02-08T00:30:57;31.63;;;12.18;;
42964;SDS011;28604;51.204;22.552;2023-02-08T00:33:22;27.65;;;11.88;;
42964;SDS011;28604;51.204;22.552;2023-02-08T00:35:48;29.95;;;11.57;;
42964;SDS011;28604;51.204;22.552;2023-02-08T00:38:14;27.48;;;12.27;;
42964;SDS011;28604;51.204;22.552;2023-02-08T00:40:41;29.05;;;11.82;;
42964;SDS011;28604;51.204;22.552;2023-02-08T00:43:06;31.00;;;11.73;;
42964;SDS011;28604;51.204;22.552;2023-02-08T00:45:33;23.05;;;10.20;;
42964;SDS011;28604;51.204;22.552;2023-02-08T00:47:59;18.70;;;9.52;;
42964;SDS011;28604;51.204;22.552;2023-02-08T00:50:25;23.80;;;9.82;;
42964;SDS011;28604;51.204;22.552;2023-02-08T00:52:51;23.13;;;8.77;;
42964;SDS011;28604;51.204;22.552;2023-02-08T00:55:17;19.90;;;9.68;;
42964;SDS011;28604;51.204;22.552;2023-02-08T00:57:43;17.63;;;9.02;;
42964;SDS011;28604;51.204;22.552;2023-02-08T01:00:09;18.60;;;8.95;;
42964;SDS011;28604;51.204;22.552;2023-02-08T01:02:36;22.20;;;9.55;;
42964;SDS011;28604;51.204;22.552;2023-02-08T01:05:03;24.42;;;8.68;;
42964;SDS011;28604;51.204;22.552;2023-02-08T01:07:29;22.70;;;8.95;;
42964;SDS011;28604;51.204;22.552;2023-02-08T01:09:55;22.85;;;10.15;;
42964;SDS011;28604;51.204;22.552;2023-02-08T01:12:21;23.40;;;9.85;;
42964;SDS011;28604;51.204;22.552;2023-02-08T01:14:47;24.52;;;10.27;;
42964;SDS011;28604;51.204;22.552;2023-02-08T01:17:13;24.58;;;9.75;;
42964;SDS011;28604;51.204;22.552;2023-02-08T01:19:39;24.52;;;10.40;;
42964;SDS011;28604;51.204;22.552;2023-02-08T01:22:05;22.63;;;9.98;;
42964;SDS011;28604;51.204;22.552;2023-02-08T01:24:31;21.95;;;9.70;;
42964;SDS011;28604;51.204;22.552;2023-02-08T01:26:57;19.88;;;9.38;;
42964;SDS011;28604;51.204;22.552;2023-02-08T01:29:23;25.35;;;9.73;;
42964;SDS011;28604;51.204;22.552;2023-02-08T01:31:50;21.17;;;10.15;;
42964;SDS011;28604;51.204;22.552;2023-02-08T01:34:16;23.60;;;10.07;;
42964;SDS011;28604;51.204;22.552;2023-02-08T01:36:42;20.48;;;10.35;;
42964;SDS011;28604;51.204;22.552;2023-02-08T01:39:08;18.75;;;10.05;;
42964;SDS011;28604;51.204;22.552;2023-02-08T01:41:39;22.65;;;10.63;;
42964;SDS011;28604;51.204;22.552;2023-02-08T01:46:43;25.75;;;10.80;;
42964;SDS011;28604;51.204;22.552;2023-02-08T01:49:18;19.23;;;9.50;;
42964;SDS011;28604;51.204;22.552;2023-02-08T01:54:30;21.02;;;9.80;;
42964;SDS011;28604;51.204;22.552;2023-02-08T01:57:02;18.23;;;8.48;;
42964;SDS011;28604;51.204;22.552;2023-02-08T01:59:34;22.50;;;8.80;;
42964;SDS011;28604;51.204;22.552;2023-02-08T02:02:08;18.58;;;9.30;;
42964;SDS011;28604;51.204;22.552;2023-02-08T02:04:37;19.00;;;8.10;;
42964;SDS011;28604;51.204;22.552;2023-02-08T02:07:04;19.05;;;8.55;;
42964;SDS011;28604;51.204;22.552;2023-02-08T02:09:44;19.08;;;8.93;;
42964;SDS011;28604;51.204;22.552;2023-02-08T02:12:19;18.85;;;8.98;;
42964;SDS011;28604;51.204;22.552;2023-02-08T02:14:45;22.70;;;10.48;;
42964;SDS011;28604;51.204;22.552;2023-02-08T02:17:12;19.60;;;9.45;;
42964;SDS011;28604;51.204;22.552;2023-02-08T02:25:02;21.33;;;9.13;;
42964;SDS011;28604;51.204;22.552;2023-02-08T02:34:02;21.10;;;9.35;;
42964;SDS011;28604;51.204;22.552;2023-02-08T02:36:35;21.42;;;10.25;;
42964;SDS011;28604;51.204;22.552;2023-02-08T02:39:31;23.98;;;9.60;;
42964;SDS011;28604;51.204;22.552;2023-02-08T02:42:12;18.98;;;9.38;;
42964;SDS011;28604;51.204;22.552;2023-02-08T02:47:44;17.52;;;8.10;;
42964;SDS011;28604;51.204;22.552;2023-02-08T02:50:36;18.80;;;8.52;;
42964;SDS011;28604;51.204;22.552;2023-02-08T02:55:59;22.05;;;9.60;;
42964;SDS011;28604;51.204;22.552;2023-02-08T02:58:31;17.67;;;8.63;;
42964;SDS011;28604;51.204;22.552;2023-02-08T03:00:58;20.63;;;9.48;;
42964;SDS011;28604;51.204;22.552;2023-02-08T03:03:25;23.83;;;9.77;;
42964;SDS011;28604;51.204;22.552;2023-02-08T03:05:53;20.60;;;8.95;;
42964;SDS011;28604;51.204;22.552;2023-02-08T03:08:46;15.82;;;8.45;;
42964;SDS011;28604;51.204;22.552;2023-02-08T03:11:25;17.35;;;8.60;;
42964;SDS011;28604;51.204;22.552;2023-02-08T03:30:17;18.35;;;8.23;;
42964;SDS011;28604;51.204;22.552;2023-02-08T03:32:47;15.73;;;7.90;;
42964;SDS011;28604;51.204;22.552;2023-02-08T03:35:20;17.40;;;8.20;;
42964;SDS011;28604;51.204;22.552;2023-02-08T03:37:54;13.23;;;7.13;;
42964;SDS011;28604;51.204;22.552;2023-02-08T03:40:27;13.35;;;7.38;;
42964;SDS011;28604;51.204;22.552;2023-02-08T03:42:57;19.38;;;8.68;;
42964;SDS011;28604;51.204;22.552;2023-02-08T03:46:10;16.55;;;8.20;;
42964;SDS011;28604;51.204;22.552;2023-02-08T03:48:48;14.35;;;7.88;;
42964;SDS011;28604;51.204;22.552;2023-02-08T03:51:18;13.25;;;8.43;;
42964;SDS011;28604;51.204;22.552;2023-02-08T03:53:47;17.17;;;8.40;;
42964;SDS011;28604;51.204;22.552;2023-02-08T03:56:21;15.52;;;7.90;;
42964;SDS011;28604;51.204;22.552;2023-02-08T03:59:08;14.40;;;7.88;;
42964;SDS011;28604;51.204;22.552;2023-02-08T04:02:13;16.73;;;8.38;;
42964;SDS011;28604;51.204;22.552;2023-02-08T04:04:38;20.77;;;9.23;;
42964;SDS011;28604;51.204;22.552;2023-02-08T04:07:08;16.95;;;8.65;;
42964;SDS011;28604;51.204;22.552;2023-02-08T04:09:33;23.15;;;8.85;;
42964;SDS011;28604;51.204;22.552;2023-02-08T04:12:00;22.02;;;10.48;;
42964;SDS011;28604;51.204;22.552;2023-02-08T04:14:26;23.05;;;10.43;;
42964;SDS011;28604;51.204;22.552;2023-02-08T04:16:52;23.15;;;9.75;;
42964;SDS011;28604;51.204;22.552;2023-02-08T04:19:17;23.05;;;10.50;;
42964;SDS011;28604;51.204;22.552;2023-02-08T04:21:43;22.42;;;11.90;;
42964;SDS011;28604;51.204;22.552;2023-02-08T04:24:09;24.17;;;11.57;;
42964;SDS011;28604;51.204;22.552;2023-02-08T04:26:35;29.70;;;12.98;;
42964;SDS011;28604;51.204;22.552;2023-02-08T04:29:01;34.45;;;14.93;;
42964;SDS011;28604;51.204;22.552;2023-02-08T04:31:28;38.13;;;16.45;;
42964;SDS011;28604;51.204;22.552;2023-02-08T04:33:54;38.15;;;16.40;;
42964;SDS011;28604;51.204;22.552;2023-02-08T04:36:20;43.78;;;18.00;;
42964;SDS011;28604;51.204;22.552;2023-02-08T04:38:46;43.35;;;16.50;;
42964;SDS011;28604;51.204;22.552;2023-02-08T04:41:12;33.88;;;15.13;;
42964;SDS011;28604;51.204;22.552;2023-02-08T04:43:37;32.83;;;13.25;;
42964;SDS011;28604;51.204;22.552;2023-02-08T04:46:03;23.27;;;11.15;;
42964;SDS011;28604;51.204;22.552;2023-02-08T04:48:29;17.63;;;8.82;;
42964;SDS011;28604;51.204;22.552;2023-02-08T04:50:56;16.10;;;8.85;;
42964;SDS011;28604;51.204;22.552;2023-02-08T04:53:22;13.70;;;7.78;;
42964;SDS011;28604;51.204;22.552;2023-02-08T04:55:49;14.30;;;7.70;;
42964;SDS011;28604;51.204;22.552;2023-02-08T04:58:16;12.30;;;7.32;;
42964;SDS011;28604;51.204;22.552;2023-02-08T05:00:42;13.73;;;7.38;;
42964;SDS011;28604;51.204;22.552;2023-02-08T05:03:08;16.35;;;7.57;;
42964;SDS011;28604;51.204;22.552;2023-02-08T05:05:34;12.98;;;7.63;;
42964;SDS011;28604;51.204;22.552;2023-02-08T05:08:00;18.58;;;8.18;;
42964;SDS011;28604;51.204;22.552;2023-02-08T05:10:26;18.00;;;10.20;;
42964;SDS011;28604;51.204;22.552;2023-02-08T05:12:52;12.40;;;6.95;;
42964;SDS011;28604;51.204;22.552;2023-02-08T05:15:19;16.10;;;7.93;;
42964;SDS011;28604;51.204;22.552;2023-02-08T05:17:44;19.30;;;9.10;;
42964;SDS011;28604;51.204;22.552;2023-02-08T05:20:11;16.63;;;8.20;;
42964;SDS011;28604;51.204;22.552;2023-02-08T05:22:38;16.23;;;8.43;;
42964;SDS011;28604;51.204;22.552;2023-02-08T05:25:05;19.48;;;8.88;;
42964;SDS011;28604;51.204;22.552;2023-02-08T05:27:32;24.05;;;8.43;;
42964;SDS011;28604;51.204;22.552;2023-02-08T05:29:59;15.10;;;7.35;;
42964;SDS011;28604;51.204;22.552;2023-02-08T05:32:25;15.27;;;7.43;;
42964;SDS011;28604;51.204;22.552;2023-02-08T05:34:52;17.98;;;8.43;;
42964;SDS011;28604;51.204;22.552;2023-02-08T05:37:18;17.08;;;8.27;;
42964;SDS011;28604;51.204;22.552;2023-02-08T05:39:44;15.90;;;8.80;;
42964;SDS011;28604;51.204;22.552;2023-02-08T05:42:10;13.45;;;7.68;;
42964;SDS011;28604;51.204;22.552;2023-02-08T05:44:36;11.70;;;5.40;;
42964;SDS011;28604;51.204;22.552;2023-02-08T05:47:02;8.95;;;5.03;;
42964;SDS011;28604;51.204;22.552;2023-02-08T05:49:28;9.38;;;4.97;;
42964;SDS011;28604;51.204;22.552;2023-02-08T05:51:54;11.63;;;5.18;;
42964;SDS011;28604;51.204;22.552;2023-02-08T05:54:20;9.65;;;4.82;;
42964;SDS011;28604;51.204;22.552;2023-02-08T05:56:46;9.65;;;4.72;;
42964;SDS011;28604;51.204;22.552;2023-02-08T05:59:12;8.88;;;4.75;;
42964;SDS011;28604;51.204;22.552;2023-02-08T06:01:38;8.77;;;4.80;;
42964;SDS011;28604;51.204;22.552;2023-02-08T06:04:04;11.55;;;5.13;;
42964;SDS011;28604;51.204;22.552;2023-02-08T06:06:30;13.98;;;5.13;;
42964;SDS011;28604;51.204;22.552;2023-02-08T06:08:56;15.55;;;6.47;;
42964;SDS011;28604;51.204;22.552;2023-02-08T06:11:22;12.10;;;5.78;;
42964;SDS011;28604;51.204;22.552;2023-02-08T06:13:48;19.17;;;6.90;;
42964;SDS011;28604;51.204;22.552;2023-02-08T06:16:14;19.05;;;7.28;;
42964;SDS011;28604;51.204;22.552;2023-02-08T06:18:40;12.68;;;6.05;;
42964;SDS011;28604;51.204;22.552;2023-02-08T06:21:06;12.15;;;5.82;;
42964;SDS011;28604;51.204;22.552;2023-02-08T06:23:32;8.98;;;5.57;;
42964;SDS011;28604;51.204;22.552;2023-02-08T06:25:58;14.63;;;6.68;;
42964;SDS011;28604;51.204;22.552;2023-02-08T06:28:24;10.85;;;5.78;;
42964;SDS011;28604;51.204;22.552;2023-02-08T06:30:50;10.38;;;5.75;;
42964;SDS011;28604;51.204;22.552;2023-02-08T06:33:17;11.05;;;5.47;;
42964;SDS011;28604;51.204;22.552;2023-02-08T06:35:46;10.00;;;5.60;;
42964;SDS011;28604;51.204;22.552;2023-02-08T06:38:18;11.43;;;5.75;;
42964;SDS011;28604;51.204;22.552;2023-02-08T06:40:47;12.48;;;6.10;;
42964;SDS011;28604;51.204;22.552;2023-02-08T06:43:14;9.50;;;5.28;;
42964;SDS011;28604;51.204;22.552;2023-02-08T06:45:42;7.25;;;5.53;;
42964;SDS011;28604;51.204;22.552;2023-02-08T06:48:11;10.77;;;5.55;;
42964;SDS011;28604;51.204;22.552;2023-02-08T06:50:37;7.95;;;5.47;;
42964;SDS011;28604;51.204;22.552;2023-02-08T06:53:04;9.70;;;5.85;;
42964;SDS011;28604;51.204;22.552;2023-02-08T06:55:29;8.85;;;5.90;;
42964;SDS011;28604;51.204;22.552;2023-02-08T06:57:56;7.90;;;5.75;;
42964;SDS011;28604;51.204;22.552;2023-02-08T07:00:21;9.25;;;5.82;;
42964;SDS011;28604;51.204;22.552;2023-02-08T07:02:48;13.45;;;7.38;;
42964;SDS011;28604;51.204;22.552;2023-02-08T07:05:16;10.50;;;5.65;;
42964;SDS011;28604;51.204;22.552;2023-02-08T07:07:42;8.73;;;5.35;;
42964;SDS011;28604;51.204;22.552;2023-02-08T07:10:10;7.82;;;5.45;;
42964;SDS011;28604;51.204;22.552;2023-02-08T07:12:38;8.27;;;5.90;;
42964;SDS011;28604;51.204;22.552;2023-02-08T07:15:04;12.20;;;6.75;;
42964;SDS011;28604;51.204;22.552;2023-02-08T07:17:34;14.55;;;6.50;;
42964;SDS011;28604;51.204;22.552;2023-02-08T07:19:59;11.18;;;6.75;;
42964;SDS011;28604;51.204;22.552;2023-02-08T07:22:25;11.18;;;7.13;;
42964;SDS011;28604;51.204;22.552;2023-02-08T07:24:54;11.50;;;7.38;;
42964;SDS011;28604;51.204;22.552;2023-02-08T07:27:27;11.85;;;6.82;;
42964;SDS011;28604;51.204;22.552;2023-02-08T07:29:55;7.30;;;5.38;;
42964;SDS011;28604;51.204;22.552;2023-02-08T07:32:21;13.40;;;5.78;;
42964;SDS011;28604;51.204;22.552;2023-02-08T07:34:47;11.25;;;6.47;;
42964;SDS011;28604;51.204;22.552;2023-02-08T07:37:13;14.15;;;7.28;;
42964;SDS011;28604;51.204;22.552;2023-02-08T07:39:38;10.30;;;6.55;;
42964;SDS011;28604;51.204;22.552;2023-02-08T07:49:43;10.75;;;6.40;;
42964;SDS011;28604;51.204;22.552;2023-02-08T07:52:11;11.27;;;7.22;;
42964;SDS011;28604;51.204;22.552;2023-02-08T07:54:37;11.98;;;5.93;;
42964;SDS011;28604;51.204;22.552;2023-02-08T07:57:03;8.65;;;6.68;;
42964;SDS011;28604;51.204;22.552;2023-02-08T07:59:29;9.88;;;6.55;;
42964;SDS011;28604;51.204;22.552;2023-02-08T08:01:55;11.18;;;6.97;;
42964;SDS011;28604;51.204;22.552;2023-02-08T08:04:21;11.93;;;7.03;;
42964;SDS011;28604;51.204;22.552;2023-02-08T08:06:50;12.13;;;7.07;;
42964;SDS011;28604;51.204;22.552;2023-02-08T08:09:18;9.05;;;6.35;;
42964;SDS011;28604;51.204;22.552;2023-02-08T08:11:44;9.65;;;6.38;;
42964;SDS011;28604;51.204;22.552;2023-02-08T08:14:10;10.73;;;6.38;;
42964;SDS011;28604;51.204;22.552;2023-02-08T08:16:36;9.57;;;5.65;;
42964;SDS011;28604;51.204;22.552;2023-02-08T08:19:02;8.88;;;6.20;;
42964;SDS011;28604;51.204;22.552;2023-02-08T08:21:28;11.18;;;6.60;;
42964;SDS011;28604;51.204;22.552;2023-02-08T08:23:54;11.90;;;6.85;;
42964;SDS011;28604;51.204;22.552;2023-02-08T08:26:20;11.07;;;6.55;;
42964;SDS011;28604;51.204;22.552;2023-02-08T08:28:49;8.43;;;6.40;;
42964;SDS011;28604;51.204;22.552;2023-02-08T08:31:15;11.23;;;6.85;;
42964;SDS011;28604;51.204;22.552;2023-02-08T08:33:43;12.52;;;6.90;;
42964;SDS011;28604;51.204;22.552;2023-02-08T08:36:10;15.77;;;7.43;;
42964;SDS011;28604;51.204;22.552;2023-02-08T08:38:36;13.20;;;7.93;;
42964;SDS011;28604;51.204;22.552;2023-02-08T08:41:15;14.52;;;8.95;;
42964;SDS011;28604;51.204;22.552;2023-02-08T08:43:42;16.60;;;9.75;;
42964;SDS011;28604;51.204;22.552;2023-02-08T08:46:08;18.95;;;10.63;;
42964;SDS011;28604;51.204;22.552;2023-02-08T08:48:35;19.58;;;10.07;;
42964;SDS011;28604;51.204;22.552;2023-02-08T08:51:02;15.45;;;9.50;;
42964;SDS011;28604;51.204;22.552;2023-02-08T08:53:28;17.23;;;10.52;;
42964;SDS011;28604;51.204;22.552;2023-02-08T08:55:54;17.90;;;10.85;;
42964;SDS011;28604;51.204;22.552;2023-02-08T08:58:20;17.55;;;11.13;;
42964;SDS011;28604;51.204;22.552;2023-02-08T09:00:46;18.48;;;9.88;;
42964;SDS011;28604;51.204;22.552;2023-02-08T09:03:12;17.20;;;9.57;;
42964;SDS011;28604;51.204;22.552;2023-02-08T09:05:38;16.38;;;9.90;;
42964;SDS011;28604;51.204;22.552;2023-02-08T09:08:04;14.10;;;8.98;;
42964;SDS011;28604;51.204;22.552;2023-02-08T09:10:30;10.82;;;8.48;;
42964;SDS011;28604;51.204;22.552;2023-02-08T09:12:57;14.45;;;8.07;;
42964;SDS011;28604;51.204;22.552;2023-02-08T09:15:23;10.38;;;7.50;;
42964;SDS011;28604;51.204;22.552;2023-02-08T09:17:49;12.18;;;8.30;;
42964;SDS011;28604;51.204;22.552;2023-02-08T09:20:18;12.20;;;8.60;;
42964;SDS011;28604;51.204;22.552;2023-02-08T09:22:44;18.55;;;10.07;;
42964;SDS011;28604;51.204;22.552;2023-02-08T09:25:10;19.05;;;10.20;;
42964;SDS011;28604;51.204;22.552;2023-02-08T09:27:36;17.70;;;8.90;;
42964;SDS011;28604;51.204;22.552;2023-02-08T09:30:02;15.18;;;9.30;;
42964;SDS011;28604;51.204;22.552;2023-02-08T09:32:32;15.20;;;9.95;;
42964;SDS011;28604;51.204;22.552;2023-02-08T09:34:59;17.65;;;10.43;;
42964;SDS011;28604;51.204;22.552;2023-02-08T09:37:26;18.55;;;12.13;;
42964;SDS011;28604;51.204;22.552;2023-02-08T09:39:53;18.08;;;11.70;;
42964;SDS011;28604;51.204;22.552;2023-02-08T09:42:34;18.33;;;11.13;;
42964;SDS011;28604;51.204;22.552;2023-02-08T09:48:13;14.05;;;9.40;;
42964;SDS011;28604;51.204;22.552;2023-02-08T09:51:24;14.55;;;9.40;;
42964;SDS011;28604;51.204;22.552;2023-02-08T09:53:29;16.75;;;9.02;;
42964;SDS011;28604;51.204;22.552;2023-02-08T09:56:01;14.48;;;9.90;;
42964;SDS011;28604;51.204;22.552;2023-02-08T09:58:34;14.82;;;9.45;;
42964;SDS011;28604;51.204;22.552;2023-02-08T10:01:18;18.92;;;10.50;;
42964;SDS011;28604;51.204;22.552;2023-02-08T10:03:52;15.43;;;10.18;;
42964;SDS011;28604;51.204;22.552;2023-02-08T10:06:33;17.58;;;9.48;;
42964;SDS011;28604;51.204;22.552;2023-02-08T10:09:00;13.20;;;8.30;;
42964;SDS011;28604;51.204;22.552;2023-02-08T10:25:18;7.65;;;6.15;;
42964;SDS011;28604;51.204;22.552;2023-02-08T10:34:00;11.38;;;8.95;;
42964;SDS011;28604;51.204;22.552;2023-02-08T10:36:19;12.38;;;8.38;;
42964;SDS011;28604;51.204;22.552;2023-02-08T10:38:48;8.60;;;7.53;;
42964;SDS011;28604;51.204;22.552;2023-02-08T10:41:20;8.77;;;7.03;;
42964;SDS011;28604;51.204;22.552;2023-02-08T10:43:51;7.47;;;6.53;;
42964;SDS011;28604;51.204;22.552;2023-02-08T10:51:45;10.20;;;7.50;;
42964;SDS011;28604;51.204;22.552;2023-02-08T10:54:12;10.23;;;7.03;;
42964;SDS011;28604;51.204;22.552;2023-02-08T10:56:42;13.20;;;7.35;;
42964;SDS011;28604;51.204;22.552;2023-02-08T10:59:18;14.55;;;7.68;;
42964;SDS011;28604;51.204;22.552;2023-02-08T11:02:41;26.38;;;9.52;;
42964;SDS011;28604;51.204;22.552;2023-02-08T11:05:10;32.97;;;10.70;;
42964;SDS011;28604;51.204;22.552;2023-02-08T11:07:42;16.25;;;8.02;;
42964;SDS011;28604;51.204;22.552;2023-02-08T11:12:54;10.45;;;7.15;;
42964;SDS011;28604;51.204;22.552;2023-02-08T11:18:03;7.80;;;6.20;;
42964;SDS011;28604;51.204;22.552;2023-02-08T11:20:39;9.13;;;6.43;;
42964;SDS011;28604;51.204;22.552;2023-02-08T11:23:16;9.93;;;7.53;;
42964;SDS011;28604;51.204;22.552;2023-02-08T11:25:44;7.63;;;6.47;;
42964;SDS011;28604;51.204;22.552;2023-02-08T11:28:26;9.40;;;6.57;;
42964;SDS011;28604;51.204;22.552;2023-02-08T11:30:55;9.25;;;7.63;;
42964;SDS011;28604;51.204;22.552;2023-02-08T11:33:23;7.97;;;7.15;;
42964;SDS011;28604;51.204;22.552;2023-02-08T12:19:21;12.90;;;7.88;;
42964;SDS011;28604;51.204;22.552;2023-02-08T12:22:25;18.80;;;11.27;;
42964;SDS011;28604;51.204;22.552;2023-02-08T12:38:46;13.43;;;10.13;;
42964;SDS011;28604;51.204;22.552;2023-02-08T12:44:49;12.40;;;8.80;;
42964;SDS011;28604;51.204;22.552;2023-02-08T12:47:42;11.95;;;7.95;;
42964;SDS011;28604;51.204;22.552;2023-02-08T12:52:49;16.30;;;8.98;;
42964;SDS011;28604;51.204;22.552;2023-02-08T12:55:52;13.48;;;10.27;;
42964;SDS011;28604;51.204;22.552;2023-02-08T13:01:13;18.45;;;10.23;;
42964;SDS011;28604;51.204;22.552;2023-02-08T13:04:19;13.35;;;9.40;;
42964;SDS011;28604;51.204;22.552;2023-02-08T13:06:41;16.58;;;9.43;;
42964;SDS011;28604;51.204;22.552;2023-02-08T13:09:24;16.25;;;9.32;;
42964;SDS011;28604;51.204;22.552;2023-02-08T13:14:42;16.25;;;10.60;;
42964;SDS011;28604;51.204;22.552;2023-02-08T13:17:17;16.45;;;9.63;;
42964;SDS011;28604;51.204;22.552;2023-02-08T13:19:48;15.63;;;11.13;;
42964;SDS011;28604;51.204;22.552;2023-02-08T13:22:31;15.55;;;10.95;;
42964;SDS011;28604;51.204;22.552;2023-02-08T13:25:01;15.93;;;10.85;;
42964;SDS011;28604;51.204;22.552;2023-02-08T13:27:29;15.90;;;11.05;;
42964;SDS011;28604;51.204;22.552;2023-02-08T13:29:55;18.92;;;11.32;;
42964;SDS011;28604;51.204;22.552;2023-02-08T13:32:24;19.00;;;12.60;;
42964;SDS011;28604;51.204;22.552;2023-02-08T13:35:01;18.80;;;10.60;;
42964;SDS011;28604;51.204;22.552;2023-02-08T13:37:37;17.88;;;11.20;;
42964;SDS011;28604;51.204;22.552;2023-02-08T13:40:05;16.42;;;10.63;;
42964;SDS011;28604;51.204;22.552;2023-02-08T13:43:00;20.85;;;10.95;;
42964;SDS011;28604;51.204;22.552;2023-02-08T13:48:08;18.52;;;11.35;;
42964;SDS011;28604;51.204;22.552;2023-02-08T13:50:38;17.67;;;11.27;;
42964;SDS011;28604;51.204;22.552;2023-02-08T13:53:10;14.27;;;10.00;;
42964;SDS011;28604;51.204;22.552;2023-02-08T13:56:11;19.33;;;11.55;;
42964;SDS011;28604;51.204;22.552;2023-02-08T14:01:17;18.77;;;11.73;;
42964;SDS011;28604;51.204;22.552;2023-02-08T14:06:34;18.27;;;11.23;;
42964;SDS011;28604;51.204;22.552;2023-02-08T14:25:45;24.23;;;12.43;;
42964;SDS011;28604;51.204;22.552;2023-02-08T14:28:21;20.65;;;12.50;;
42964;SDS011;28604;51.204;22.552;2023-02-08T14:30:50;21.73;;;12.90;;
42964;SDS011;28604;51.204;22.552;2023-02-08T14:33:52;21.38;;;13.27;;
42964;SDS011;28604;51.204;22.552;2023-02-08T14:36:24;23.98;;;12.63;;
42964;SDS011;28604;51.204;22.552;2023-02-08T14:41:49;26.83;;;13.70;;
42964;SDS011;28604;51.204;22.552;2023-02-08T14:49:48;23.25;;;15.32;;
42964;SDS011;28604;51.204;22.552;2023-02-08T14:52:20;31.30;;;17.52;;
42964;SDS011;28604;51.204;22.552;2023-02-08T14:54:52;28.60;;;16.63;;
42964;SDS011;28604;51.204;22.552;2023-02-08T14:57:30;34.97;;;17.92;;
42964;SDS011;28604;51.204;22.552;2023-02-08T15:00:03;46.40;;;21.35;;
42964;SDS011;28604;51.204;22.552;2023-02-08T15:02:31;48.70;;;22.75;;
42964;SDS011;28604;51.204;22.552;2023-02-08T15:04:59;47.30;;;24.63;;
42964;SDS011;28604;51.204;22.552;2023-02-08T15:07:38;55.67;;;25.33;;
42964;SDS011;28604;51.204;22.552;2023-02-08T15:10:13;57.28;;;26.55;;
42964;SDS011;28604;51.204;22.552;2023-02-08T15:12:45;56.78;;;25.25;;
42964;SDS011;28604;51.204;22.552;2023-02-08T15:15:27;49.35;;;23.20;;
42964;SDS011;28604;51.204;22.552;2023-02-08T15:17:58;39.53;;;23.10;;
42964;SDS011;28604;51.204;22.552;2023-02-08T15:20:31;35.83;;;20.58;;
42964;SDS011;28604;51.204;22.552;2023-02-08T15:22:59;53.95;;;25.38;;
42964;SDS011;28604;51.204;22.552;2023-02-08T15:25:30;56.60;;;25.95;;
42964;SDS011;28604;51.204;22.552;2023-02-08T15:27:58;55.33;;;24.75;;
42964;SDS011;28604;51.204;22.552;2023-02-08T15:33:07;52.83;;;23.23;;
42964;SDS011;28604;51.204;22.552;2023-02-08T15:35:39;56.47;;;25.98;;
42964;SDS011;28604;51.204;22.552;2023-02-08T15:38:16;58.88;;;27.50;;
42964;SDS011;28604;51.204;22.552;2023-02-08T15:43:31;59.97;;;28.00;;
42964;SDS011;28604;51.204;22.552;2023-02-08T15:45:59;55.88;;;26.90;;
42964;SDS011;28604;51.204;22.552;2023-02-08T15:48:27;59.25;;;29.95;;
42964;SDS011;28604;51.204;22.552;2023-02-08T15:50:54;64.40;;;31.13;;
42964;SDS011;28604;51.204;22.552;2023-02-08T15:53:21;76.63;;;34.92;;
42964;SDS011;28604;51.204;22.552;2023-02-08T15:55:53;80.82;;;37.85;;
42964;SDS011;28604;51.204;22.552;2023-02-08T16:00:55;77.40;;;36.90;;
42964;SDS011;28604;51.204;22.552;2023-02-08T16:03:23;75.93;;;35.03;;
42964;SDS011;28604;51.204;22.552;2023-02-08T16:06:02;75.35;;;33.38;;
42964;SDS011;28604;51.204;22.552;2023-02-08T16:08:31;65.93;;;32.72;;
42964;SDS011;28604;51.204;22.552;2023-02-08T16:11:05;69.00;;;31.20;;
42964;SDS011;28604;51.204;22.552;2023-02-08T16:13:45;72.18;;;32.40;;
42964;SDS011;28604;51.204;22.552;2023-02-08T16:16:20;61.08;;;29.05;;
42964;SDS011;28604;51.204;22.552;2023-02-08T16:19:17;65.45;;;28.92;;
42964;SDS011;28604;51.204;22.552;2023-02-08T16:21:44;63.90;;;28.58;;
42964;SDS011;28604;51.204;22.552;2023-02-08T16:29:15;67.05;;;31.80;;
42964;SDS011;28604;51.204;22.552;2023-02-08T16:32:04;84.90;;;38.75;;
42964;SDS011;28604;51.204;22.552;2023-02-08T16:34:50;127.00;;;60.63;;
42964;SDS011;28604;51.204;22.552;2023-02-08T16:37:35;121.20;;;53.50;;
42964;SDS011;28604;51.204;22.552;2023-02-08T16:42:49;105.68;;;45.88;;
42964;SDS011;28604;51.204;22.552;2023-02-08T16:45:16;104.45;;;46.25;;
42964;SDS011;28604;51.204;22.552;2023-02-08T16:50:21;110.35;;;45.53;;
42964;SDS011;28604;51.204;22.552;2023-02-08T16:52:52;126.05;;;53.80;;
42964;SDS011;28604;51.204;22.552;2023-02-08T16:55:23;149.57;;;59.83;;
42964;SDS011;28604;51.204;22.552;2023-02-08T16:57:53;155.60;;;60.45;;
42964;SDS011;28604;51.204;22.552;2023-02-08T17:00:24;150.38;;;59.10;;
42964;SDS011;28604;51.204;22.552;2023-02-08T17:02:55;167.07;;;65.07;;
42964;SDS011;28604;51.204;22.552;2023-02-08T17:05:22;155.43;;;60.25;;
42964;SDS011;28604;51.204;22.552;2023-02-08T17:07:51;142.88;;;58.38;;
42964;SDS011;28604;51.204;22.552;2023-02-08T17:10:27;143.35;;;56.40;;
42964;SDS011;28604;51.204;22.552;2023-02-08T17:12:56;135.15;;;55.55;;
42964;SDS011;28604;51.204;22.552;2023-02-08T17:15:22;129.55;;;52.17;;
42964;SDS011;28604;51.204;22.552;2023-02-08T17:17:49;133.13;;;53.08;;
42964;SDS011;28604;51.204;22.552;2023-02-08T17:20:20;123.68;;;50.38;;
42964;SDS011;28604;51.204;22.552;2023-02-08T17:22:50;118.80;;;47.28;;
42964;SDS011;28604;51.204;22.552;2023-02-08T17:25:17;124.88;;;48.38;;
42964;SDS011;28604;51.204;22.552;2023-02-08T17:27:54;120.90;;;49.88;;
42964;SDS011;28604;51.204;22.552;2023-02-08T17:30:23;125.15;;;50.10;;
42964;SDS011;28604;51.204;22.552;2023-02-08T17:32:52;120.35;;;49.92;;
42964;SDS011;28604;51.204;22.552;2023-02-08T17:35:21;132.68;;;49.97;;
42964;SDS011;28604;51.204;22.552;2023-02-08T17:37:49;124.97;;;50.65;;
42964;SDS011;28604;51.204;22.552;2023-02-08T17:40:18;136.65;;;55.45;;
42964;SDS011;28604;51.204;22.552;2023-02-08T17:42:46;130.05;;;53.78;;
42964;SDS011;28604;51.204;22.552;2023-02-08T17:45:12;141.77;;;56.38;;
42964;SDS011;28604;51.204;22.552;2023-02-08T17:47:38;129.82;;;54.38;;
42964;SDS011;28604;51.204;22.552;2023-02-08T17:50:06;128.52;;;54.63;;
42964;SDS011;28604;51.204;22.552;2023-02-08T17:52:34;139.70;;;56.40;;
42964;SDS011;28604;51.204;22.552;2023-02-08T17:55:01;145.38;;;58.50;;